sensor_id;sensor_type;location;lat;lon;timestamp;pressure;altitude;pressure_sealevel;temperature;humidity
40794;BME280;26502;51.886;15.604;2023-03-21T00:01:18;100748.05;;;7.94;80.03
40794;BME280;26502;51.886;15.604;2023-03-21T00:06:24;100736.13;;;8.06;80.34
40794;BME280;26502;51.886;15.604;2023-03-21T00:16:36;100740.59;;;8.20;79.75
40794;BME280;26502;51.886;15.604;2023-03-21T00:21:41;100745.66;;;8.07;79.73
40794;BME280;26502;51.886;15.604;2023-03-21T00:26:49;100741.41;;;7.99;79.98
40794;BME280;26502;51.886;15.604;2023-03-21T00:31:55;100740.42;;;7.96;79.98
40794;BME280;26502;51.886;15.604;2023-03-21T00:37:02;100739.66;;;7.98;80.10
40794;BME280;26502;51.886;15.604;2023-03-21T00:42:09;100736.84;;;7.97;80.19
40794;BME280;26502;51.886;15.604;2023-03-21T00:47:16;100738.29;;;7.87;80.03
40794;BME280;26502;51.886;15.604;2023-03-21T00:52:22;100746.58;;;7.88;80.27
40794;BME280;26502;51.886;15.604;2023-03-21T00:57:29;100740.73;;;7.88;80.24
40794;BME280;26502;51.886;15.604;2023-03-21T01:02:35;100743.11;;;7.93;80.40
40794;BME280;26502;51.886;15.604;2023-03-21T01:07:41;100741.26;;;7.97;80.19
40794;BME280;26502;51.886;15.604;2023-03-21T01:12:47;100737.52;;;7.89;80.27
40794;BME280;26502;51.886;15.604;2023-03-21T01:17:56;100735.17;;;7.92;80.41
40794;BME280;26502;51.886;15.604;2023-03-21T01:23:02;100734.80;;;7.94;80.40
40794;BME280;26502;51.886;15.604;2023-03-21T01:28:09;100737.89;;;7.98;80.44
40794;BME280;26502;51.886;15.604;2023-03-21T01:33:16;100731.21;;;7.96;80.44
40794;BME280;26502;51.886;15.604;2023-03-21T01:38:22;100727.25;;;7.90;80.52
40794;BME280;26502;51.886;15.604;2023-03-21T01:43:29;100724.63;;;7.90;80.60
40794;BME280;26502;51.886;15.604;2023-03-21T01:48:40;100724.14;;;7.87;80.63
40794;BME280;26502;51.886;15.604;2023-03-21T01:53:48;100724.65;;;7.88;80.78
40794;BME280;26502;51.886;15.604;2023-03-21T01:58:58;100722.53;;;7.96;80.90
40794;BME280;26502;51.886;15.604;2023-03-21T02:04:29;100723.75;;;8.05;80.93
40794;BME280;26502;51.886;15.604;2023-03-21T02:09:52;100721.88;;;8.19;80.85
40794;BME280;26502;51.886;15.604;2023-03-21T02:14:59;100721.14;;;8.20;80.59
40794;BME280;26502;51.886;15.604;2023-03-21T02:20:59;100715.45;;;8.05;80.41
40794;BME280;26502;51.886;15.604;2023-03-21T02:26:33;100712.83;;;7.96;80.61
40794;BME280;26502;51.886;15.604;2023-03-21T02:31:52;100711.02;;;7.97;80.79
40794;BME280;26502;51.886;15.604;2023-03-21T02:37:11;100714.75;;;8.05;80.92
40794;BME280;26502;51.886;15.604;2023-03-21T02:42:26;100715.32;;;8.12;80.68
40794;BME280;26502;51.886;15.604;2023-03-21T02:47:35;100715.16;;;8.11;80.51
40794;BME280;26502;51.886;15.604;2023-03-21T02:52:46;100711.16;;;8.08;80.50
40794;BME280;26502;51.886;15.604;2023-03-21T02:57:51;100706.00;;;8.09;80.63
40794;BME280;26502;51.886;15.604;2023-03-21T03:02:59;100712.69;;;8.10;80.67
40794;BME280;26502;51.886;15.604;2023-03-21T03:08:18;100718.62;;;8.05;80.37
40794;BME280;26502;51.886;15.604;2023-03-21T03:13:39;100722.00;;;7.88;80.41
40794;BME280;26502;51.886;15.604;2023-03-21T03:18:54;100722.80;;;7.74;80.57
40794;BME280;26502;51.886;15.604;2023-03-21T03:24:00;100720.20;;;7.71;80.79
40794;BME280;26502;51.886;15.604;2023-03-21T03:29:10;100714.76;;;7.79;81.02
40794;BME280;26502;51.886;15.604;2023-03-21T03:34:21;100717.70;;;7.90;81.00
40794;BME280;26502;51.886;15.604;2023-03-21T03:39:34;100715.15;;;7.95;80.81
40794;BME280;26502;51.886;15.604;2023-03-21T03:44:42;100716.61;;;7.84;80.60
40794;BME280;26502;51.886;15.604;2023-03-21T03:49:53;100722.23;;;7.68;80.61
40794;BME280;26502;51.886;15.604;2023-03-21T03:55:02;100721.86;;;7.59;80.82
40794;BME280;26502;51.886;15.604;2023-03-21T04:00:11;100727.67;;;7.51;81.05
40794;BME280;26502;51.886;15.604;2023-03-21T04:05:22;100728.27;;;7.57;81.28
40794;BME280;26502;51.886;15.604;2023-03-21T04:10:29;100724.55;;;7.66;81.29
40794;BME280;26502;51.886;15.604;2023-03-21T04:15:35;100724.09;;;7.72;81.29
40794;BME280;26502;51.886;15.604;2023-03-21T04:20:47;100726.45;;;7.78;81.11
40794;BME280;26502;51.886;15.604;2023-03-21T04:25:56;100722.45;;;7.75;81.05
40794;BME280;26502;51.886;15.604;2023-03-21T04:31:12;100725.42;;;7.67;80.95
40794;BME280;26502;51.886;15.604;2023-03-21T04:36:23;100726.63;;;7.60;81.13
40794;BME280;26502;51.886;15.604;2023-03-21T04:41:38;100729.27;;;7.60;81.13
40794;BME280;26502;51.886;15.604;2023-03-21T04:46:44;100729.54;;;7.55;81.08
40794;BME280;26502;51.886;15.604;2023-03-21T04:51:50;100732.30;;;7.49;81.25
40794;BME280;26502;51.886;15.604;2023-03-21T04:56:58;100731.77;;;7.50;81.37
40794;BME280;26502;51.886;15.604;2023-03-21T05:02:05;100733.05;;;7.47;81.46
40794;BME280;26502;51.886;15.604;2023-03-21T05:07:11;100732.27;;;7.43;81.41
40794;BME280;26502;51.886;15.604;2023-03-21T05:12:17;100737.64;;;7.47;81.62
40794;BME280;26502;51.886;15.604;2023-03-21T05:17:25;100740.68;;;7.54;81.60
40794;BME280;26502;51.886;15.604;2023-03-21T05:22:34;100743.34;;;7.64;81.59
40794;BME280;26502;51.886;15.604;2023-03-21T05:27:47;100744.39;;;7.73;81.60
40794;BME280;26502;51.886;15.604;2023-03-21T05:32:59;100748.98;;;7.65;81.32
40794;BME280;26502;51.886;15.604;2023-03-21T05:38:08;100748.61;;;7.56;81.35
40794;BME280;26502;51.886;15.604;2023-03-21T05:43:24;100756.19;;;7.48;81.42
40794;BME280;26502;51.886;15.604;2023-03-21T05:48:30;100760.89;;;7.51;81.71
40794;BME280;26502;51.886;15.604;2023-03-21T05:53:50;100759.76;;;7.55;81.67
40794;BME280;26502;51.886;15.604;2023-03-21T05:58:57;100763.95;;;7.58;81.74
40794;BME280;26502;51.886;15.604;2023-03-21T06:04:03;100767.22;;;7.63;81.70
40794;BME280;26502;51.886;15.604;2023-03-21T06:09:10;100773.80;;;7.61;81.67
40794;BME280;26502;51.886;15.604;2023-03-21T06:14:18;100779.13;;;7.59;81.67
40794;BME280;26502;51.886;15.604;2023-03-21T06:19:41;100778.72;;;7.61;81.73
40794;BME280;26502;51.886;15.604;2023-03-21T06:24:54;100781.23;;;7.60;81.71
40794;BME280;26502;51.886;15.604;2023-03-21T06:30:01;100782.60;;;7.63;81.63
40794;BME280;26502;51.886;15.604;2023-03-21T06:35:11;100786.39;;;7.59;81.48
40794;BME280;26502;51.886;15.604;2023-03-21T06:40:19;100785.64;;;7.60;81.57
40794;BME280;26502;51.886;15.604;2023-03-21T06:45:25;100785.08;;;7.63;81.40
40794;BME280;26502;51.886;15.604;2023-03-21T06:50:31;100786.99;;;7.64;81.51
40794;BME280;26502;51.886;15.604;2023-03-21T06:55:38;100792.46;;;7.75;81.65
40794;BME280;26502;51.886;15.604;2023-03-21T07:00:45;100791.90;;;7.76;81.23
40794;BME280;26502;51.886;15.604;2023-03-21T07:05:52;100797.84;;;7.79;81.09
40794;BME280;26502;51.886;15.604;2023-03-21T07:10:59;100799.63;;;7.79;81.22
40794;BME280;26502;51.886;15.604;2023-03-21T07:16:08;100804.02;;;7.89;81.16
40794;BME280;26502;51.886;15.604;2023-03-21T07:21:15;100804.51;;;8.00;81.03
40794;BME280;26502;51.886;15.604;2023-03-21T07:26:22;100804.51;;;8.01;80.41
40794;BME280;26502;51.886;15.604;2023-03-21T07:31:28;100805.48;;;8.05;79.92
40794;BME280;26502;51.886;15.604;2023-03-21T07:36:34;100808.52;;;8.12;79.72
40794;BME280;26502;51.886;15.604;2023-03-21T07:41:41;100811.92;;;8.11;79.30
40794;BME280;26502;51.886;15.604;2023-03-21T07:46:52;100813.21;;;8.16;79.20
40794;BME280;26502;51.886;15.604;2023-03-21T07:51:59;100811.86;;;8.31;79.16
40794;BME280;26502;51.886;15.604;2023-03-21T07:57:06;100814.40;;;8.28;78.78
40794;BME280;26502;51.886;15.604;2023-03-21T08:02:15;100811.33;;;8.30;78.82
40794;BME280;26502;51.886;15.604;2023-03-21T08:07:22;100810.73;;;8.34;78.63
40794;BME280;26502;51.886;15.604;2023-03-21T08:12:28;100813.21;;;8.42;78.56
40794;BME280;26502;51.886;15.604;2023-03-21T08:17:35;100817.80;;;8.52;78.34
40794;BME280;26502;51.886;15.604;2023-03-21T08:22:44;100818.05;;;8.57;78.35
40794;BME280;26502;51.886;15.604;2023-03-21T08:27:52;100821.90;;;8.68;78.07
40794;BME280;26502;51.886;15.604;2023-03-21T08:32:59;100819.14;;;8.64;77.68
40794;BME280;26502;51.886;15.604;2023-03-21T08:38:06;100821.91;;;8.67;77.50
40794;BME280;26502;51.886;15.604;2023-03-21T08:43:13;100824.77;;;8.90;77.25
40794;BME280;26502;51.886;15.604;2023-03-21T08:48:20;100824.25;;;9.11;76.87
40794;BME280;26502;51.886;15.604;2023-03-21T08:53:26;100820.17;;;9.33;76.70
40794;BME280;26502;51.886;15.604;2023-03-21T08:58:33;100819.05;;;9.22;76.09
40794;BME280;26502;51.886;15.604;2023-03-21T09:03:40;100819.20;;;9.29;76.28
40794;BME280;26502;51.886;15.604;2023-03-21T09:08:47;100822.79;;;9.42;75.88
40794;BME280;26502;51.886;15.604;2023-03-21T09:13:56;100823.04;;;9.25;75.49
40794;BME280;26502;51.886;15.604;2023-03-21T09:19:03;100826.84;;;9.07;75.38
40794;BME280;26502;51.886;15.604;2023-03-21T09:24:12;100823.39;;;9.02;75.32
40794;BME280;26502;51.886;15.604;2023-03-21T09:29:19;100824.57;;;9.13;75.17
40794;BME280;26502;51.886;15.604;2023-03-21T09:34:27;100827.39;;;9.28;75.08
40794;BME280;26502;51.886;15.604;2023-03-21T09:39:33;100828.72;;;9.38;74.66
40794;BME280;26502;51.886;15.604;2023-03-21T09:44:47;100829.52;;;9.36;74.61
40794;BME280;26502;51.886;15.604;2023-03-21T09:50:00;100832.89;;;9.35;74.36
40794;BME280;26502;51.886;15.604;2023-03-21T09:55:16;100831.41;;;9.37;74.41
40794;BME280;26502;51.886;15.604;2023-03-21T10:00:29;100831.77;;;9.44;74.49
40794;BME280;26502;51.886;15.604;2023-03-21T10:05:40;100831.05;;;9.52;74.30
40794;BME280;26502;51.886;15.604;2023-03-21T10:10:50;100830.55;;;9.50;73.75
40794;BME280;26502;51.886;15.604;2023-03-21T10:15:59;100828.21;;;9.44;73.66
40794;BME280;26502;51.886;15.604;2023-03-21T10:21:06;100830.16;;;9.44;73.32
40794;BME280;26502;51.886;15.604;2023-03-21T10:26:13;100826.36;;;9.48;73.09
40794;BME280;26502;51.886;15.604;2023-03-21T10:31:22;100821.67;;;9.51;73.12
40794;BME280;26502;51.886;15.604;2023-03-21T10:36:31;100826.61;;;9.58;72.89
40794;BME280;26502;51.886;15.604;2023-03-21T10:41:38;100824.87;;;9.65;72.69
40794;BME280;26502;51.886;15.604;2023-03-21T10:46:53;100827.52;;;9.71;72.56
40794;BME280;26502;51.886;15.604;2023-03-21T10:52:02;100824.70;;;9.71;72.40
40794;BME280;26502;51.886;15.604;2023-03-21T10:57:11;100822.48;;;9.60;72.21
40794;BME280;26502;51.886;15.604;2023-03-21T11:02:23;100821.71;;;9.56;72.22
40794;BME280;26502;51.886;15.604;2023-03-21T11:07:30;100819.45;;;9.68;72.49
40794;BME280;26502;51.886;15.604;2023-03-21T11:12:38;100808.02;;;9.85;72.29
40794;BME280;26502;51.886;15.604;2023-03-21T11:17:45;100808.14;;;9.93;72.13
40794;BME280;26502;51.886;15.604;2023-03-21T11:22:54;100801.61;;;9.98;71.52
40794;BME280;26502;51.886;15.604;2023-03-21T11:28:06;100798.44;;;9.85;71.48
40794;BME280;26502;51.886;15.604;2023-03-21T11:33:15;100796.73;;;9.81;70.91
40794;BME280;26502;51.886;15.604;2023-03-21T11:38:28;100789.66;;;9.88;70.97
40794;BME280;26502;51.886;15.604;2023-03-21T11:43:37;100789.81;;;10.01;71.21
40794;BME280;26502;51.886;15.604;2023-03-21T11:48:45;100775.84;;;10.24;70.80
40794;BME280;26502;51.886;15.604;2023-03-21T11:53:58;100782.86;;;10.20;70.50
40794;BME280;26502;51.886;15.604;2023-03-21T11:59:17;100775.79;;;10.32;70.16
40794;BME280;26502;51.886;15.604;2023-03-21T12:04:38;100770.23;;;10.28;69.63
40794;BME280;26502;51.886;15.604;2023-03-21T12:09:49;100765.42;;;10.29;69.67
40794;BME280;26502;51.886;15.604;2023-03-21T12:15:05;100757.45;;;10.35;69.78
40794;BME280;26502;51.886;15.604;2023-03-21T12:20:35;100752.34;;;10.45;70.05
40794;BME280;26502;51.886;15.604;2023-03-21T12:25:45;100744.80;;;10.49;69.86
40794;BME280;26502;51.886;15.604;2023-03-21T12:31:02;100742.14;;;10.48;70.09
40794;BME280;26502;51.886;15.604;2023-03-21T12:36:26;100736.63;;;10.54;70.10
40794;BME280;26502;51.886;15.604;2023-03-21T12:41:42;100727.11;;;10.52;69.89
40794;BME280;26502;51.886;15.604;2023-03-21T12:46:53;100716.17;;;10.49;70.08
40794;BME280;26502;51.886;15.604;2023-03-21T12:52:06;100713.70;;;10.60;69.88
40794;BME280;26502;51.886;15.604;2023-03-21T12:57:16;100704.56;;;10.74;70.02
40794;BME280;26502;51.886;15.604;2023-03-21T13:02:29;100705.52;;;10.72;69.56
40794;BME280;26502;51.886;15.604;2023-03-21T13:07:40;100702.16;;;10.66;69.55
40794;BME280;26502;51.886;15.604;2023-03-21T13:13:00;100700.32;;;10.57;69.43
40794;BME280;26502;51.886;15.604;2023-03-21T13:18:16;100698.02;;;10.51;69.69
40794;BME280;26502;51.886;15.604;2023-03-21T13:23:34;100693.62;;;10.61;69.68
40794;BME280;26502;51.886;15.604;2023-03-21T13:28:42;100685.55;;;10.58;69.52
40794;BME280;26502;51.886;15.604;2023-03-21T13:33:50;100683.84;;;10.72;69.63
40794;BME280;26502;51.886;15.604;2023-03-21T13:39:04;100678.79;;;10.90;69.35
40794;BME280;26502;51.886;15.604;2023-03-21T13:44:21;100678.02;;;10.92;69.28
40794;BME280;26502;51.886;15.604;2023-03-21T13:49:32;100669.85;;;11.02;69.45
40794;BME280;26502;51.886;15.604;2023-03-21T13:54:50;100664.95;;;11.05;69.33
40794;BME280;26502;51.886;15.604;2023-03-21T14:00:15;100660.35;;;11.00;69.05
40794;BME280;26502;51.886;15.604;2023-03-21T14:05:24;100659.70;;;10.82;68.98
40794;BME280;26502;51.886;15.604;2023-03-21T14:10:34;100654.05;;;10.81;69.14
40794;BME280;26502;51.886;15.604;2023-03-21T14:15:44;100647.80;;;10.87;69.35
40794;BME280;26502;51.886;15.604;2023-03-21T14:20:54;100643.39;;;11.02;69.45
40794;BME280;26502;51.886;15.604;2023-03-21T14:26:02;100642.05;;;11.10;69.25
40794;BME280;26502;51.886;15.604;2023-03-21T14:31:14;100642.11;;;11.08;69.09
40794;BME280;26502;51.886;15.604;2023-03-21T14:36:25;100635.20;;;11.02;69.16
40794;BME280;26502;51.886;15.604;2023-03-21T14:41:33;100634.77;;;11.10;69.23
40794;BME280;26502;51.886;15.604;2023-03-21T14:46:39;100632.48;;;11.04;69.13
40794;BME280;26502;51.886;15.604;2023-03-21T14:51:45;100625.48;;;10.90;69.15
40794;BME280;26502;51.886;15.604;2023-03-21T14:56:54;100623.40;;;10.99;69.34
40794;BME280;26502;51.886;15.604;2023-03-21T15:02:10;100621.94;;;11.06;69.30
40794;BME280;26502;51.886;15.604;2023-03-21T15:07:29;100621.81;;;11.14;69.39
40794;BME280;26502;51.886;15.604;2023-03-21T15:12:36;100608.44;;;11.30;69.48
40794;BME280;26502;51.886;15.604;2023-03-21T15:17:44;100606.45;;;11.40;69.40
40794;BME280;26502;51.886;15.604;2023-03-21T15:22:53;100601.00;;;11.39;69.03
40794;BME280;26502;51.886;15.604;2023-03-21T15:28:02;100599.13;;;11.37;69.02
40794;BME280;26502;51.886;15.604;2023-03-21T15:33:12;100595.65;;;11.35;68.86
40794;BME280;26502;51.886;15.604;2023-03-21T15:38:28;100597.91;;;11.36;69.15
40794;BME280;26502;51.886;15.604;2023-03-21T15:43:39;100594.13;;;11.32;69.07
40794;BME280;26502;51.886;15.604;2023-03-21T15:48:46;100589.03;;;11.21;69.08
40794;BME280;26502;51.886;15.604;2023-03-21T15:53:53;100583.56;;;11.25;69.30
40794;BME280;26502;51.886;15.604;2023-03-21T15:59:01;100583.56;;;11.30;69.30
40794;BME280;26502;51.886;15.604;2023-03-21T16:04:10;100578.02;;;11.30;69.03
40794;BME280;26502;51.886;15.604;2023-03-21T16:09:18;100574.01;;;11.24;69.09
40794;BME280;26502;51.886;15.604;2023-03-21T16:14:28;100569.64;;;11.16;69.24
40794;BME280;26502;51.886;15.604;2023-03-21T16:19:34;100567.89;;;11.11;69.19
40794;BME280;26502;51.886;15.604;2023-03-21T16:24:40;100564.52;;;11.06;69.31
40794;BME280;26502;51.886;15.604;2023-03-21T16:29:47;100568.89;;;11.03;69.38
40794;BME280;26502;51.886;15.604;2023-03-21T16:34:54;100565.63;;;11.10;69.60
40794;BME280;26502;51.886;15.604;2023-03-21T16:40:00;100564.91;;;11.20;69.47
40794;BME280;26502;51.886;15.604;2023-03-21T16:45:10;100561.65;;;11.26;69.66
40794;BME280;26502;51.886;15.604;2023-03-21T16:50:22;100564.85;;;11.22;69.19
40794;BME280;26502;51.886;15.604;2023-03-21T16:55:31;100560.77;;;11.11;69.45
40794;BME280;26502;51.886;15.604;2023-03-21T17:00:38;100559.52;;;11.17;69.73
40794;BME280;26502;51.886;15.604;2023-03-21T17:05:45;100560.48;;;11.09;69.54
40794;BME280;26502;51.886;15.604;2023-03-21T17:10:52;100557.33;;;11.08;69.66
40794;BME280;26502;51.886;15.604;2023-03-21T17:15:58;100562.69;;;10.88;69.37
40794;BME280;26502;51.886;15.604;2023-03-21T17:21:12;100562.95;;;10.75;69.67
40794;BME280;26502;51.886;15.604;2023-03-21T17:26:24;100568.02;;;10.62;69.72
40794;BME280;26502;51.886;15.604;2023-03-21T17:31:34;100571.17;;;10.53;69.95
40794;BME280;26502;51.886;15.604;2023-03-21T17:36:42;100575.70;;;10.50;70.04
40794;BME280;26502;51.886;15.604;2023-03-21T17:41:50;100574.98;;;10.50;70.23
40794;BME280;26502;51.886;15.604;2023-03-21T17:46:57;100576.33;;;10.53;70.50
40794;BME280;26502;51.886;15.604;2023-03-21T17:52:06;100572.92;;;10.64;70.53
40794;BME280;26502;51.886;15.604;2023-03-21T17:57:12;100579.21;;;10.72;70.54
40794;BME280;26502;51.886;15.604;2023-03-21T18:02:18;100579.13;;;10.74;70.69
40794;BME280;26502;51.886;15.604;2023-03-21T18:07:25;100587.48;;;10.69;70.35
40794;BME280;26502;51.886;15.604;2023-03-21T18:12:31;100587.73;;;10.62;70.77
40794;BME280;26502;51.886;15.604;2023-03-21T18:17:38;100588.26;;;10.68;70.83
40794;BME280;26502;51.886;15.604;2023-03-21T18:22:45;100586.17;;;10.66;70.82
40794;BME280;26502;51.886;15.604;2023-03-21T18:27:51;100582.09;;;10.56;70.61
40794;BME280;26502;51.886;15.604;2023-03-21T18:32:57;100582.05;;;10.46;70.87
40794;BME280;26502;51.886;15.604;2023-03-21T18:38:04;100577.33;;;10.50;71.06
40794;BME280;26502;51.886;15.604;2023-03-21T18:43:10;100572.02;;;10.54;71.30
40794;BME280;26502;51.886;15.604;2023-03-21T18:48:16;100567.02;;;10.55;71.26
40794;BME280;26502;51.886;15.604;2023-03-21T18:53:23;100564.61;;;10.58;71.40
40794;BME280;26502;51.886;15.604;2023-03-21T18:58:29;100562.49;;;10.63;71.42
40794;BME280;26502;51.886;15.604;2023-03-21T19:03:36;100562.91;;;10.61;71.20
40794;BME280;26502;51.886;15.604;2023-03-21T19:08:48;100560.63;;;10.60;71.32
40794;BME280;26502;51.886;15.604;2023-03-21T19:13:54;100550.01;;;10.59;71.27
40794;BME280;26502;51.886;15.604;2023-03-21T19:19:01;100544.63;;;10.56;71.41
40794;BME280;26502;51.886;15.604;2023-03-21T19:24:08;100547.17;;;10.54;71.45
40794;BME280;26502;51.886;15.604;2023-03-21T19:29:14;100545.84;;;10.51;71.50
40794;BME280;26502;51.886;15.604;2023-03-21T19:34:21;100544.85;;;10.54;71.72
40794;BME280;26502;51.886;15.604;2023-03-21T19:39:28;100540.19;;;10.51;71.55
40794;BME280;26502;51.886;15.604;2023-03-21T19:44:36;100535.46;;;10.38;71.63
40794;BME280;26502;51.886;15.604;2023-03-21T19:49:42;100525.70;;;10.38;71.60
40794;BME280;26502;51.886;15.604;2023-03-21T19:54:49;100529.73;;;10.29;71.57
40794;BME280;26502;51.886;15.604;2023-03-21T19:59:55;100522.55;;;10.20;71.75
40794;BME280;26502;51.886;15.604;2023-03-21T20:05:02;100516.88;;;10.08;71.68
40794;BME280;26502;51.886;15.604;2023-03-21T20:10:09;100514.73;;;9.99;71.80
40794;BME280;26502;51.886;15.604;2023-03-21T20:15:15;100508.67;;;9.99;71.82
40794;BME280;26502;51.886;15.604;2023-03-21T20:20:22;100516.18;;;9.92;71.77
40794;BME280;26502;51.886;15.604;2023-03-21T20:25:28;100515.39;;;9.83;71.96
40794;BME280;26502;51.886;15.604;2023-03-21T20:30:35;100515.35;;;9.90;72.00
40794;BME280;26502;51.886;15.604;2023-03-21T20:35:41;100511.77;;;9.97;72.03
40794;BME280;26502;51.886;15.604;2023-03-21T20:40:48;100509.05;;;10.09;72.16
40794;BME280;26502;51.886;15.604;2023-03-21T20:46:00;100500.36;;;10.14;72.14
40794;BME280;26502;51.886;15.604;2023-03-21T20:51:09;100501.15;;;10.12;71.89
40794;BME280;26502;51.886;15.604;2023-03-21T20:56:16;100496.38;;;10.01;71.96
40794;BME280;26502;51.886;15.604;2023-03-21T21:01:24;100492.33;;;9.94;72.06
40794;BME280;26502;51.886;15.604;2023-03-21T21:06:32;100485.88;;;9.91;72.12
40794;BME280;26502;51.886;15.604;2023-03-21T21:11:38;100483.54;;;9.87;72.28
40794;BME280;26502;51.886;15.604;2023-03-21T21:16:45;100480.73;;;9.80;72.25
40794;BME280;26502;51.886;15.604;2023-03-21T21:21:52;100474.33;;;9.69;72.42
40794;BME280;26502;51.886;15.604;2023-03-21T21:26:59;100472.89;;;9.70;72.60
40794;BME280;26502;51.886;15.604;2023-03-21T21:32:05;100466.64;;;9.72;72.51
40794;BME280;26502;51.886;15.604;2023-03-21T21:37:12;100474.22;;;9.67;72.52
40794;BME280;26502;51.886;15.604;2023-03-21T21:42:18;100470.45;;;9.74;72.48
40794;BME280;26502;51.886;15.604;2023-03-21T21:47:26;100469.20;;;9.80;72.59
40794;BME280;26502;51.886;15.604;2023-03-21T21:52:32;100467.30;;;9.89;72.54
40794;BME280;26502;51.886;15.604;2023-03-21T21:57:39;100464.24;;;9.91;72.40
40794;BME280;26502;51.886;15.604;2023-03-21T22:02:45;100460.13;;;9.86;72.51
40794;BME280;26502;51.886;15.604;2023-03-21T22:07:53;100458.71;;;9.81;72.58
40794;BME280;26502;51.886;15.604;2023-03-21T22:12:59;100454.30;;;9.80;72.65
40794;BME280;26502;51.886;15.604;2023-03-21T22:18:07;100450.27;;;9.84;72.65
40794;BME280;26502;51.886;15.604;2023-03-21T22:23:13;100452.13;;;9.76;72.47
40794;BME280;26502;51.886;15.604;2023-03-21T22:28:19;100450.01;;;9.65;72.61
40794;BME280;26502;51.886;15.604;2023-03-21T22:33:27;100451.25;;;9.59;72.61
40794;BME280;26502;51.886;15.604;2023-03-21T22:38:37;100447.31;;;9.50;72.70
40794;BME280;26502;51.886;15.604;2023-03-21T22:43:45;100440.61;;;9.43;72.78
40794;BME280;26502;51.886;15.604;2023-03-21T22:48:51;100438.02;;;9.35;72.77
40794;BME280;26502;51.886;15.604;2023-03-21T22:53:58;100435.69;;;9.30;73.01
40794;BME280;26502;51.886;15.604;2023-03-21T22:59:06;100432.94;;;9.27;73.08
40794;BME280;26502;51.886;15.604;2023-03-21T23:04:13;100428.70;;;9.27;73.22
40794;BME280;26502;51.886;15.604;2023-03-21T23:09:21;100428.67;;;9.28;73.35
40794;BME280;26502;51.886;15.604;2023-03-21T23:14:28;100424.39;;;9.29;73.26
40794;BME280;26502;51.886;15.604;2023-03-21T23:19:34;100422.58;;;9.30;73.28
40794;BME280;26502;51.886;15.604;2023-03-21T23:24:39;100418.92;;;9.34;73.24
40794;BME280;26502;51.886;15.604;2023-03-21T23:29:46;100417.27;;;9.30;73.37
40794;BME280;26502;51.886;15.604;2023-03-21T23:34:54;100414.22;;;9.31;73.42
40794;BME280;26502;51.886;15.604;2023-03-21T23:40:00;100419.45;;;9.28;73.40
40794;BME280;26502;51.886;15.604;2023-03-21T23:45:10;100414.85;;;9.22;73.62
40794;BME280;26502;51.886;15.604;2023-03-21T23:50:16;100414.94;;;9.19;73.48
40794;BME280;26502;51.886;15.604;2023-03-21T23:55:22;100417.27;;;8.95;73.69
